createdAt,value
2019-03-12T00:00:57.008Z,6.27
2019-03-12T00:03:26.197Z,6.27
2019-03-12T00:05:55.449Z,6.26
2019-03-12T00:08:24.643Z,6.24
2019-03-12T00:10:53.865Z,6.25
2019-03-12T00:13:23.040Z,6.20
2019-03-12T00:15:52.204Z,6.28
2019-03-12T00:18:21.378Z,6.21
2019-03-12T00:20:50.564Z,6.22
2019-03-12T00:23:19.762Z,6.28
2019-03-12T00:25:48.929Z,6.29
2019-03-12T00:28:18.100Z,6.32
2019-03-12T00:30:47.266Z,6.30
2019-03-12T00:33:16.513Z,6.31
2019-03-12T00:35:45.722Z,6.27
2019-03-12T00:38:14.922Z,6.24
2019-03-12T00:40:44.084Z,6.23
2019-03-12T00:43:13.272Z,6.25
2019-03-12T00:45:42.450Z,6.24
2019-03-12T00:48:11.626Z,6.33
2019-03-12T00:50:40.802Z,6.30
2019-03-12T00:53:10.006Z,6.33
2019-03-12T00:55:39.185Z,6.30
2019-03-12T00:58:08.349Z,6.36
2019-03-12T01:00:37.530Z,6.36
2019-03-12T01:03:06.707Z,6.37
2019-03-12T01:05:36.152Z,6.42
2019-03-12T01:08:05.421Z,6.35
2019-03-12T01:10:34.891Z,6.37
2019-03-12T01:13:09.891Z,6.39
2019-03-12T01:15:39.047Z,6.39
2019-03-12T01:18:08.242Z,6.42
2019-03-12T01:20:37.443Z,6.37
2019-03-12T01:23:06.609Z,6.40
2019-03-12T01:25:35.792Z,6.36
2019-03-12T01:28:05.042Z,6.35
2019-03-12T01:30:34.207Z,6.41
2019-03-12T01:33:03.605Z,6.44
2019-03-12T01:35:32.822Z,6.32
2019-03-12T01:38:01.998Z,6.31
2019-03-12T01:40:31.763Z,6.33
2019-03-12T01:43:00.953Z,6.37
2019-03-12T01:45:30.230Z,6.41
2019-03-12T01:47:59.433Z,6.35
2019-03-12T01:50:28.640Z,6.32
2019-03-12T01:52:58.013Z,6.39
2019-03-12T01:55:27.198Z,6.37
2019-03-12T01:57:56.379Z,6.33
2019-03-12T02:00:25.629Z,6.32
2019-03-12T02:02:54.832Z,6.30
2019-03-12T02:05:24.223Z,6.35
2019-03-12T02:07:53.672Z,6.30
2019-03-12T02:10:22.794Z,6.30
2019-03-12T02:12:51.979Z,6.22
2019-03-12T02:15:21.389Z,6.29
2019-03-12T02:17:50.575Z,6.34
2019-03-12T02:20:20.526Z,6.34
2019-03-12T02:23:08.184Z,6.35
2019-03-12T02:25:55.531Z,6.27
2019-03-12T02:28:24.713Z,6.32
2019-03-12T02:30:54.003Z,6.33
2019-03-12T02:33:23.447Z,6.26
2019-03-12T02:35:52.626Z,6.20
2019-03-12T02:38:21.804Z,6.21
2019-03-12T02:40:51.010Z,6.23
2019-03-12T02:43:20.284Z,6.15
2019-03-12T02:45:49.469Z,6.21
2019-03-12T02:48:18.648Z,6.26
2019-03-12T02:50:47.951Z,6.32
2019-03-12T02:53:17.186Z,6.29
2019-03-12T02:55:46.376Z,6.32
2019-03-12T02:58:15.560Z,6.38
2019-03-12T03:00:44.726Z,6.37
2019-03-12T03:03:13.910Z,6.31
2019-03-12T03:06:05.961Z,6.35
2019-03-12T03:08:35.501Z,6.39
2019-03-12T03:11:04.757Z,6.40
2019-03-12T03:13:33.946Z,6.40
2019-03-12T03:16:03.119Z,6.39
2019-03-12T03:18:32.295Z,6.45
2019-03-12T03:21:01.487Z,6.33
2019-03-12T03:23:30.680Z,6.44
2019-03-12T03:25:59.893Z,6.40
2019-03-12T03:28:29.055Z,6.37
2019-03-12T03:30:58.230Z,6.39
2019-03-12T03:33:27.518Z,6.37
2019-03-12T03:35:56.676Z,6.39
2019-03-12T03:38:25.901Z,6.44
2019-03-12T03:40:55.356Z,6.43
2019-03-12T03:43:24.525Z,6.44
2019-03-12T03:45:53.903Z,6.43
2019-03-12T03:48:23.141Z,6.45
2019-03-12T03:50:52.333Z,6.43
2019-03-12T03:53:21.507Z,6.36
2019-03-12T03:55:50.721Z,6.41
2019-03-12T03:58:19.878Z,6.43
2019-03-12T04:00:49.133Z,6.48
2019-03-12T04:03:18.336Z,6.49
2019-03-12T04:05:47.576Z,6.45
2019-03-12T04:08:16.779Z,6.49
2019-03-12T04:10:45.945Z,6.48
2019-03-12T04:13:15.122Z,6.50
2019-03-12T04:15:44.323Z,6.59
2019-03-12T04:18:13.519Z,6.53
2019-03-12T04:20:42.701Z,6.58
2019-03-12T04:23:15.719Z,6.66
2019-03-12T04:25:42.761Z,6.63
2019-03-12T04:28:11.963Z,6.64
2019-03-12T04:30:41.139Z,6.67
2019-03-12T04:33:28.548Z,6.71
2019-03-12T04:35:57.764Z,6.72
2019-03-12T04:38:26.894Z,6.75
2019-03-12T04:40:56.072Z,6.77
2019-03-12T04:43:25.242Z,6.80
2019-03-12T04:45:54.441Z,6.83
2019-03-12T04:48:23.618Z,6.73
2019-03-12T04:50:52.820Z,6.76
2019-03-12T04:53:21.992Z,6.76
2019-03-12T04:55:51.243Z,6.77
2019-03-12T04:58:20.459Z,6.73
2019-03-12T05:00:49.635Z,6.70
2019-03-12T05:03:19.655Z,6.72
2019-03-12T05:05:48.854Z,6.74
2019-03-12T05:08:18.054Z,6.80
2019-03-12T05:10:47.226Z,6.75
2019-03-12T05:13:16.446Z,6.72
2019-03-12T05:15:45.622Z,6.73
2019-03-12T05:18:15.270Z,6.72
2019-03-12T05:21:02.524Z,6.72
2019-03-12T05:23:50.033Z,6.81
2019-03-12T05:26:25.088Z,6.79
2019-03-12T05:28:54.256Z,6.75
2019-03-12T05:31:23.433Z,6.71
2019-03-12T05:33:52.612Z,6.69
2019-03-12T05:36:21.792Z,6.62
2019-03-12T05:38:51.317Z,6.71
2019-03-12T05:41:20.487Z,6.72
2019-03-12T05:43:49.684Z,6.77
2019-03-12T05:46:18.855Z,6.82
2019-03-12T05:48:48.036Z,6.83
2019-03-12T05:51:17.226Z,6.82
2019-03-12T05:53:48.833Z,6.86
2019-03-12T05:56:18.006Z,6.90
2019-03-12T05:58:47.176Z,6.92
2019-03-12T06:01:16.353Z,6.95
2019-03-12T06:03:45.524Z,6.92
2019-03-12T06:06:14.689Z,6.93
2019-03-12T06:08:43.881Z,6.95
2019-03-12T06:11:13.053Z,6.94
2019-03-12T06:13:42.218Z,6.97
2019-03-12T06:16:11.422Z,6.97
2019-03-12T06:18:40.511Z,6.97
2019-03-12T06:21:09.681Z,7.01
2019-03-12T06:23:38.881Z,7.00
2019-03-12T06:26:08.156Z,7.00
2019-03-12T06:28:37.349Z,6.99
2019-03-12T06:31:11.168Z,6.99
2019-03-12T06:33:50.499Z,7.01
2019-03-12T06:36:33.554Z,7.10
2019-03-12T06:39:20.573Z,7.10
2019-03-12T06:42:00.260Z,7.12
2019-03-12T06:44:36.967Z,7.14
2019-03-12T06:47:10.501Z,7.14
2019-03-12T06:49:41.353Z,7.16
2019-03-12T06:52:15.132Z,7.19
2019-03-12T06:55:01.318Z,7.21
2019-03-12T06:57:32.163Z,7.23
2019-03-12T07:00:05.377Z,7.25
2019-03-12T07:02:44.863Z,7.32
2019-03-12T07:05:30.777Z,7.36
2019-03-12T07:08:07.431Z,7.36
2019-03-12T07:10:38.241Z,7.35
2019-03-12T07:13:21.105Z,7.41
2019-03-12T07:15:57.823Z,7.41
2019-03-12T07:18:43.490Z,7.39
2019-03-12T07:21:26.122Z,7.47
2019-03-12T07:24:13.145Z,7.43
2019-03-12T07:26:44.257Z,7.47
2019-03-12T07:29:23.790Z,7.50
2019-03-12T07:32:09.535Z,7.48
2019-03-12T07:34:40.398Z,7.49
2019-03-12T07:37:17.042Z,7.52
2019-03-12T07:39:47.907Z,7.57
2019-03-12T07:42:27.819Z,7.60
2019-03-12T07:45:04.493Z,7.59
2019-03-12T07:47:42.177Z,7.65
2019-03-12T07:50:13.139Z,7.66
2019-03-12T07:52:53.137Z,7.64
2019-03-12T07:55:40.525Z,7.70
2019-03-12T07:58:35.205Z,7.72
2019-03-12T08:01:01.425Z,7.73
2019-03-12T08:03:40.870Z,7.73
2019-03-12T08:06:14.462Z,7.76
2019-03-12T08:08:45.275Z,7.75
2019-03-12T08:11:24.962Z,7.79
2019-03-12T08:13:58.295Z,7.82
2019-03-12T08:16:29.205Z,7.85
2019-03-12T08:19:02.827Z,7.89
2019-03-12T08:21:39.379Z,7.86
2019-03-12T08:24:13.393Z,7.83
2019-03-12T08:26:45.575Z,7.88
2019-03-12T08:29:32.764Z,7.89
2019-03-12T08:32:12.385Z,7.96
2019-03-12T08:34:59.548Z,7.95
2019-03-12T08:37:36.318Z,7.94
2019-03-12T08:40:16.289Z,7.96
2019-03-12T08:42:54.507Z,7.90
2019-03-12T08:45:19.631Z,7.96
2019-03-12T08:47:53.059Z,7.95
2019-03-12T08:50:23.875Z,7.98
2019-03-12T08:52:57.224Z,8.03
2019-03-12T08:55:46.297Z,8.05
2019-03-12T08:58:26.014Z,7.98
2019-03-12T09:00:59.658Z,7.97
2019-03-12T09:03:39.547Z,7.94
2019-03-12T09:06:10.398Z,7.98
2019-03-12T09:08:41.210Z,7.98
2019-03-12T09:11:28.192Z,8.03
2019-03-12T09:14:14.924Z,8.11
2019-03-12T09:16:45.770Z,8.10
2019-03-12T09:19:16.584Z,8.08
2019-03-12T09:21:47.397Z,8.13
2019-03-12T09:24:24.120Z,8.18
2019-03-12T09:26:54.986Z,8.14
2019-03-12T09:29:25.792Z,8.15
2019-03-12T09:32:12.622Z,8.16
2019-03-12T09:34:52.407Z,8.20
2019-03-12T09:37:28.728Z,8.24
2019-03-12T09:40:05.502Z,8.35
2019-03-12T09:42:51.501Z,8.30
2019-03-12T09:45:25.115Z,8.38
2019-03-12T09:48:04.905Z,8.36
2019-03-12T09:50:36.030Z,8.42
2019-03-12T09:53:06.844Z,8.47
2019-03-12T09:55:37.656Z,8.56
2019-03-12T09:58:14.266Z,8.56
2019-03-12T10:00:45.086Z,8.71
2019-03-12T10:03:21.785Z,8.69
2019-03-12T10:06:04.682Z,8.74
2019-03-12T10:08:42.382Z,8.77
2019-03-12T10:11:31.440Z,8.84
2019-03-12T10:14:20.673Z,8.96
2019-03-12T10:16:54.113Z,9.00
2019-03-12T10:19:30.645Z,8.93
2019-03-12T10:22:17.632Z,8.93
2019-03-12T10:24:51.217Z,8.88
2019-03-12T10:30:26.516Z,8.82
2019-03-12T10:33:09.270Z,8.92
2019-03-12T10:35:42.903Z,8.89
2019-03-12T10:38:36.238Z,8.90
2019-03-12T10:41:07.059Z,8.93
2019-03-12T10:43:36.373Z,8.88
2019-03-12T10:46:07.228Z,8.88
2019-03-12T10:48:36.400Z,8.94
2019-03-12T10:51:23.626Z,9.00
2019-03-12T10:53:52.837Z,9.01
2019-03-12T10:56:22.021Z,8.91
2019-03-12T10:58:51.360Z,8.94
2019-03-12T11:01:20.600Z,8.97
2019-03-12T11:03:49.800Z,8.91
2019-03-12T11:06:19.125Z,8.91
2019-03-12T11:08:48.332Z,8.93
2019-03-12T11:11:17.529Z,8.90
2019-03-12T11:13:46.717Z,8.97
2019-03-12T11:16:15.924Z,9.01
2019-03-12T11:18:45.124Z,9.07
2019-03-12T11:21:14.294Z,9.09
2019-03-12T11:23:43.527Z,9.08
2019-03-12T11:26:12.741Z,9.15
2019-03-12T11:28:41.963Z,9.18
2019-03-12T11:31:11.205Z,9.25
2019-03-12T11:33:40.545Z,9.32
2019-03-12T11:36:09.706Z,9.36
2019-03-12T11:38:38.904Z,9.29
2019-03-12T11:41:08.243Z,9.29
2019-03-12T11:43:37.579Z,9.34
2019-03-12T11:46:06.839Z,9.38
2019-03-12T11:48:36.050Z,9.33
2019-03-12T11:51:05.255Z,9.34
2019-03-12T11:53:34.484Z,9.31
2019-03-12T11:56:03.697Z,9.32
2019-03-12T11:58:32.935Z,9.38
2019-03-12T12:01:04.049Z,9.43
2019-03-12T12:03:33.366Z,9.33
2019-03-12T12:06:02.579Z,9.33
2019-03-12T12:08:31.879Z,9.40
2019-03-12T12:11:01.083Z,9.31
2019-03-12T12:13:30.265Z,9.31
2019-03-12T12:15:59.652Z,9.30
2019-03-12T12:18:28.843Z,9.39
2019-03-12T12:20:58.016Z,9.33
2019-03-12T12:23:27.211Z,9.43
2019-03-12T12:25:56.385Z,9.41
2019-03-12T12:28:25.568Z,9.34
2019-03-12T12:30:54.796Z,9.39
2019-03-12T12:33:23.978Z,9.46
2019-03-12T12:35:53.305Z,9.47
2019-03-12T12:38:22.466Z,9.44
2019-03-12T12:40:51.650Z,9.44
2019-03-12T12:43:20.863Z,9.47
2019-03-12T12:45:50.031Z,9.52
2019-03-12T12:48:19.271Z,9.44
2019-03-12T12:51:01.931Z,9.54
2019-03-12T12:53:19.409Z,9.53
2019-03-12T12:55:48.590Z,9.57
2019-03-12T12:58:17.755Z,9.59
2019-03-12T13:00:47.272Z,9.59
2019-03-12T13:03:16.478Z,9.65
2019-03-12T13:05:45.631Z,9.63
2019-03-12T13:08:14.812Z,9.63
2019-03-12T13:10:44.007Z,9.63
2019-03-12T13:13:13.185Z,9.51
2019-03-12T13:15:42.362Z,9.58
2019-03-12T13:18:11.567Z,9.59
2019-03-12T13:20:40.743Z,9.47
2019-03-12T13:23:09.905Z,9.47
2019-03-12T13:25:39.102Z,9.52
2019-03-12T13:28:08.350Z,9.48
2019-03-12T13:30:37.647Z,9.51
2019-03-12T13:33:06.828Z,9.48
2019-03-12T13:35:36.051Z,9.44
2019-03-12T13:38:05.231Z,9.44
2019-03-12T13:40:34.496Z,9.53
2019-03-12T13:43:03.835Z,9.47
2019-03-12T13:45:33.317Z,9.48
2019-03-12T13:48:03.142Z,9.47
2019-03-12T13:50:32.699Z,9.45
2019-03-12T13:53:01.960Z,9.53
2019-03-12T13:55:31.185Z,9.49
2019-03-12T13:58:00.437Z,9.50
2019-03-12T14:00:32.932Z,9.51
2019-03-12T14:03:00.550Z,9.57
2019-03-12T14:05:29.739Z,9.58
2019-03-12T14:07:59.307Z,9.57
2019-03-12T14:10:28.741Z,9.63
2019-03-12T14:12:58.374Z,9.66
2019-03-12T14:15:38.626Z,9.68
2019-03-12T14:18:08.057Z,9.68
2019-03-12T14:20:45.298Z,9.74
2019-03-12T14:23:20.155Z,9.73
2019-03-12T14:25:50.271Z,9.79
2019-03-12T14:28:19.617Z,9.84
2019-03-12T14:30:49.034Z,9.77
2019-03-12T14:33:18.491Z,9.72
2019-03-12T14:35:52.056Z,9.77
2019-03-12T14:38:36.527Z,9.75
2019-03-12T14:41:05.771Z,9.74
2019-03-12T14:43:35.002Z,9.57
2019-03-12T14:46:04.418Z,9.44
2019-03-12T14:48:47.698Z,9.47
2019-03-12T14:51:37.949Z,9.44
2019-03-12T14:54:09.230Z,9.32
2019-03-12T14:56:38.414Z,9.38
2019-03-12T14:59:07.828Z,9.39
2019-03-12T15:01:37.018Z,9.42
2019-03-12T15:04:06.520Z,9.50
2019-03-12T15:06:35.696Z,9.54
2019-03-12T15:09:11.494Z,9.58
2019-03-12T15:11:40.729Z,9.60
2019-03-12T15:14:09.935Z,9.61
2019-03-12T15:16:39.149Z,9.66
2019-03-12T15:19:08.322Z,9.64
2019-03-12T15:21:37.500Z,9.55
2019-03-12T15:24:06.677Z,9.54
2019-03-12T15:26:35.834Z,9.57
2019-03-12T15:29:05.033Z,9.61
2019-03-12T15:31:34.211Z,9.68
2019-03-12T15:34:03.303Z,9.70
2019-03-12T15:36:32.463Z,9.72
2019-03-12T15:39:01.657Z,9.77
2019-03-12T15:41:30.901Z,9.75
2019-03-12T15:44:00.017Z,9.71
2019-03-12T15:46:29.168Z,9.71
2019-03-12T15:48:58.761Z,9.70
2019-03-12T15:51:27.958Z,9.70
2019-03-12T15:53:57.217Z,9.71
2019-03-12T15:56:26.378Z,9.66
2019-03-12T15:58:55.563Z,9.59
2019-03-12T16:01:24.757Z,9.49
2019-03-12T16:03:54.068Z,9.49
2019-03-12T16:06:26.169Z,9.54
2019-03-12T16:08:54.098Z,9.53
2019-03-12T16:11:23.252Z,9.54
2019-03-12T16:13:52.415Z,9.48
2019-03-12T16:16:21.658Z,9.55
2019-03-12T16:18:50.875Z,9.54
2019-03-12T16:21:20.222Z,9.58
2019-03-12T16:23:52.533Z,9.58
2019-03-12T16:26:38.467Z,9.63
2019-03-12T16:29:25.631Z,9.63
2019-03-12T16:32:10.146Z,9.64
2019-03-12T16:34:39.366Z,9.64
2019-03-12T16:37:08.498Z,9.65
2019-03-12T16:39:37.683Z,9.68
2019-03-12T16:42:06.851Z,9.68
2019-03-12T16:44:36.031Z,9.68
2019-03-12T16:47:05.206Z,9.74
2019-03-12T16:49:34.378Z,9.73
2019-03-12T16:52:03.574Z,9.73
2019-03-12T16:54:32.738Z,9.78
2019-03-12T16:57:01.931Z,9.66
2019-03-12T16:59:31.707Z,9.53
2019-03-12T17:02:00.873Z,9.49
2019-03-12T17:04:29.978Z,9.38
2019-03-12T17:06:59.152Z,9.31
2019-03-12T17:09:28.367Z,9.14
2019-03-12T17:11:57.533Z,9.10
2019-03-12T17:14:38.297Z,9.06
2019-03-12T17:16:57.574Z,9.00
2019-03-12T17:19:26.749Z,9.06
2019-03-12T17:21:55.950Z,8.97
2019-03-12T17:24:25.128Z,8.89
2019-03-12T17:26:54.307Z,8.81
2019-03-12T17:29:23.455Z,8.83
2019-03-12T17:31:52.648Z,8.85
2019-03-12T17:34:35.145Z,8.81
2019-03-12T17:36:54.260Z,8.81
2019-03-12T17:39:23.438Z,8.81
2019-03-12T17:41:54.122Z,8.78
2019-03-12T17:44:23.292Z,8.80
2019-03-12T17:46:52.523Z,8.73
2019-03-12T17:49:21.684Z,8.70
2019-03-12T17:51:50.887Z,8.71
2019-03-12T17:54:21.714Z,8.67
2019-03-12T17:56:50.888Z,8.49
2019-03-12T17:59:20.076Z,8.43
2019-03-12T18:01:49.244Z,8.41
2019-03-12T18:04:18.400Z,8.46
2019-03-12T18:06:47.573Z,8.46
2019-03-12T18:09:16.784Z,8.33
2019-03-12T18:11:45.970Z,8.34
2019-03-12T18:14:15.249Z,8.39
2019-03-12T18:16:44.674Z,8.38
2019-03-12T18:19:13.933Z,8.41
2019-03-12T18:21:43.383Z,8.29
2019-03-12T18:24:12.555Z,8.37
2019-03-12T18:26:41.713Z,7.95
2019-03-12T18:29:10.878Z,7.92
2019-03-12T18:31:40.093Z,7.88
2019-03-12T18:34:11.064Z,7.57
2019-03-12T18:36:40.294Z,7.38
2019-03-12T18:39:09.864Z,6.93
2019-03-12T18:41:39.288Z,6.91
2019-03-12T18:44:08.450Z,6.73
2019-03-12T18:46:37.627Z,6.62
2019-03-12T18:49:06.827Z,6.66
2019-03-12T18:51:35.983Z,6.51
2019-03-12T18:54:05.154Z,6.55
2019-03-12T18:56:34.399Z,6.57
2019-03-12T18:59:03.581Z,6.30
2019-03-12T19:01:32.756Z,6.16
2019-03-12T19:04:01.918Z,6.42
2019-03-12T19:06:31.094Z,6.34
2019-03-12T19:09:00.253Z,6.29
2019-03-12T19:11:29.503Z,6.37
2019-03-12T19:13:58.853Z,6.26
2019-03-12T19:16:28.109Z,6.26
2019-03-12T19:18:57.275Z,6.30
2019-03-12T19:21:26.448Z,6.42
2019-03-12T19:23:55.607Z,6.36
2019-03-12T19:26:24.794Z,6.35
2019-03-12T19:28:54.048Z,6.36
2019-03-12T19:31:33.586Z,6.42
2019-03-12T19:34:03.902Z,6.45
2019-03-12T19:36:33.066Z,6.44
2019-03-12T19:39:02.233Z,6.25
2019-03-12T19:41:31.391Z,6.35
2019-03-12T19:44:00.623Z,6.40
2019-03-12T19:46:29.800Z,6.51
2019-03-12T19:48:58.956Z,6.53
2019-03-12T19:51:28.159Z,6.45
2019-03-12T19:53:57.321Z,6.55
2019-03-12T19:56:26.489Z,6.59
2019-03-12T19:58:55.662Z,6.59
2019-03-12T20:01:25.492Z,6.58
2019-03-12T20:03:57.701Z,6.56
2019-03-12T20:06:26.878Z,6.57
2019-03-12T20:08:56.037Z,6.67
2019-03-12T20:11:42.890Z,6.51
2019-03-12T20:14:23.416Z,6.68
2019-03-12T20:17:09.547Z,6.60
2019-03-12T20:19:54.153Z,6.47
2019-03-12T20:22:48.902Z,6.50
2019-03-12T20:25:32.997Z,6.60
2019-03-12T20:28:38.374Z,6.62
2019-03-12T20:31:10.587Z,6.55
2019-03-12T20:34:02.544Z,6.54
2019-03-12T20:36:43.253Z,6.70
2019-03-12T20:39:48.353Z,6.83
2019-03-12T20:42:52.766Z,6.79
2019-03-12T20:45:36.281Z,6.72
2019-03-12T20:48:11.241Z,6.59
2019-03-12T20:51:01.787Z,6.68
2019-03-12T20:54:02.749Z,6.72
2019-03-12T20:57:08.348Z,6.76
2019-03-12T21:00:15.405Z,6.70
2019-03-12T21:02:53.227Z,6.84
2019-03-12T21:05:56.946Z,6.92
2019-03-12T21:09:04.513Z,6.93
2019-03-12T21:12:06.645Z,6.94
2019-03-12T21:14:50.575Z,6.84
2019-03-12T21:17:25.632Z,6.94
2019-03-12T21:20:14.063Z,6.98
2019-03-12T21:22:57.985Z,6.93
2019-03-12T21:25:33.070Z,6.98
2019-03-12T21:28:21.743Z,7.07
2019-03-12T21:30:50.925Z,6.99
2019-03-12T21:33:20.103Z,6.89
2019-03-12T21:35:49.361Z,7.01
2019-03-12T21:38:18.532Z,7.06
2019-03-12T21:40:47.714Z,7.10
2019-03-12T21:43:16.892Z,7.09
2019-03-12T21:45:46.075Z,7.07
2019-03-12T21:48:15.256Z,7.11
2019-03-12T21:50:44.749Z,7.07
2019-03-12T21:53:13.929Z,7.10
2019-03-12T21:55:43.107Z,7.16
2019-03-12T21:58:12.303Z,7.11
2019-03-12T22:00:41.495Z,7.11
2019-03-12T22:03:10.663Z,7.26
2019-03-12T22:05:39.843Z,7.24
2019-03-12T22:08:09.012Z,7.32
2019-03-12T22:10:38.264Z,7.26
2019-03-12T22:13:07.458Z,7.28
2019-03-12T22:15:36.635Z,7.24
2019-03-12T22:18:05.832Z,7.21
2019-03-12T22:20:35.026Z,7.23
2019-03-12T22:23:11.537Z,7.27
2019-03-12T22:25:40.716Z,7.20
2019-03-12T22:28:09.894Z,7.23
2019-03-12T22:30:39.079Z,7.23
2019-03-12T22:33:08.237Z,7.17
2019-03-12T22:35:37.419Z,7.22
2019-03-12T22:38:06.614Z,7.20
2019-03-12T22:40:35.784Z,7.12
2019-03-12T22:43:04.947Z,7.16
2019-03-12T22:45:34.124Z,7.27
2019-03-12T22:48:03.356Z,7.28
2019-03-12T22:50:32.549Z,7.29
2019-03-12T22:53:01.730Z,7.26
2019-03-12T22:55:30.907Z,7.31
2019-03-12T22:58:00.082Z,7.33
2019-03-12T23:00:31.150Z,7.38
2019-03-12T23:03:00.339Z,7.41
2019-03-12T23:05:29.511Z,7.43
2019-03-12T23:07:58.693Z,7.49
2019-03-12T23:10:27.936Z,7.51
2019-03-12T23:12:57.847Z,7.57
2019-03-12T23:15:27.040Z,7.55
2019-03-12T23:17:56.212Z,7.50
2019-03-12T23:20:25.517Z,7.54
2019-03-12T23:22:54.683Z,7.56
2019-03-12T23:25:23.861Z,7.55
2019-03-12T23:27:53.122Z,7.53
2019-03-12T23:30:23.823Z,7.53
2019-03-12T23:32:53.582Z,7.49
2019-03-12T23:35:22.749Z,7.41
2019-03-12T23:37:51.920Z,7.44
2019-03-12T23:40:21.187Z,7.48
2019-03-12T23:42:50.355Z,7.48
2019-03-12T23:45:19.594Z,7.40
2019-03-12T23:47:50.406Z,7.40
2019-03-12T23:50:19.966Z,7.39
2019-03-12T23:52:49.183Z,7.39
2019-03-12T23:55:19.161Z,7.46
2019-03-12T23:57:48.333Z,7.41
